Tiempo atmosférico en la estación meteorológica de Cabo Vilan, A Coruña (50 m.)

Fecha
DESCASC
Temp. máxima en grados centígrados (hora)
DESCASC
Temp. mínima en grados centígrados (hora)
DESCASC
Temp. media en grados centígrados
DESCASC
Racha de viento máxima en m/sg (hora)
DESCASC
Velocidad máxima media en intervalos de 10 minutos(hora)
DESCASC
Precipitaciones diarias en mm
DESCASC
Precipitaciones de 00:00 a 06:00 en mm
DESCASC
Precipitaciones de 06:00 a 12:00 en mm
DESCASC
Precipitaciones de 12:00 a 18:00 en mm
DESCASC
Precipitaciones de 18:00 a 24:00 en mm
DESCASC
21-08-2017 32 (13:10) 0 (09:50) 16 16.11 (01:00) 8.61 (20:10) 0 0 0 0 0
20-08-2017 21 (15:30) 16.7 (04:40) 18.9 16.94 (00:20) 13.61 (14:00) 0 0 0 0 0
19-08-2017 19.4 (14:20) 16.1 (04:20) 17.8 18.61 (22:20) 14.17 (13:10) 0 0 0 0 0
18-08-2017 23.4 (13:30) 16.8 (23:30) 20.1 12.78 (22:40) 10 (22:50) 1.7 1.6 0.1 0 0
17-08-2017 24 (16:20) 18.1 (00:00) 21.1 8.33 (18:10) 6.67 (18:10) 0 0 0 0 0
16-08-2017 22.8 (15:20) 15 (00:00) 18.9 9.72 (13:40) 7.78 (14:00) 0 0 0 0 0
15-08-2017 21.6 (16:40) 16 (00:00) 18.8 5 (17:40) 4.17 (17:30) 0.9 0.8 0.1 0 0
14-08-2017 22.2 (15:30) 14.8 (06:00) 18.5 12.78 (00:20) 4.44 (00:50) 0 0 0 0 0
13-08-2017 20.2 (15:00) 15.5 (00:00) 17.9 16.67 (16:30) 13.89 (16:00) 0 0 0 0 0
12-08-2017 19 (16:50) 15.6 (00:00) 17.3 24.72 (07:20) 12.5 (15:20) 0 0 0 0 0
11-08-2017 19.3 (16:30) 15.6 (00:00) 17.4 17.78 (00:40) 14.44 (12:40) 0 0 0 0 0
10-08-2017 19.3 (13:30) 15.2 (00:00) 17.2 16.94 (18:50) 13.89 (19:30) 0 0 0 0 0
09-08-2017 19.6 (13:20) 15.2 (00:00) 17.4 13.61 (23:30) 11.39 (22:00) 0 0 0 0 0
08-08-2017 20.9 (13:00) 14.6 (00:00) 17.8 8.06 (03:00) 6.67 (03:00) 0 0 0 0 0
07-08-2017 20 (15:10) 14.9 (00:00) 17.4 19.72 (00:20) 15.83 (00:10) 0 0 0 0 0
06-08-2017 19.1 (15:30) 16 (00:00) 17.6 21.39 (19:40) 16.67 (23:40) 0 0 0 0 0
05-08-2017 19.2 (13:50) 15.7 (00:00) 17.5 17.78 (23:30) 14.72 (21:00) 0.1 0 0.1 0 0
04-08-2017 20.4 (14:40) 15.7 (00:00) 18 12.5 (03:00) 9.17 (03:00) 2.3 0.1 0.3 1 0.9
03-08-2017 24.1 (17:50) 16.6 (00:00) 20.4 12.5 (02:00) 10 (02:00) 0.6 0.6 0 0 0
02-08-2017 22.9 (19:00) 15.4 (00:00) 19.1 14.17 (23:10) 10.28 (23:10) 0.3 0 0 0 0.3
01-08-2017 22.8 (17:20) 13.5 (00:00) 18.1 5.28 (07:30) 4.17 (07:30) 0 0 0 0 0
31-07-2017 22.1 (16:40) 15.2 (00:00) 18.7 5.83 (14:00) 4.72 (14:50) 0 0 0 0 0
30-07-2017 22.4 (16:50) 15.7 (00:00) 19 20.83 (09:20) 7.5 (10:10) 0 0 0 0 0
29-07-2017 21.7 (15:40) 16.9 (00:00) 19.3 18.61 (16:00) 12.78 (15:00) 1.6 0.3 0.5 0.1 0.7
28-07-2017 22.4 (14:20) 15 (00:00) 18.7 10.83 (16:10) 7.78 (16:10) 0.6 0 0 0 0.6
27-07-2017 20.2 (19:20) 16.1 (00:00) 18.2 8.61 (09:10) 6.67 (09:00) 1.3 0 0.6 0.7 0
26-07-2017 23.2 (16:50) 14.9 (00:00) 19.1 8.61 (19:20) 6.11 (00:20) 0 0 0 0 0
25-07-2017 20.4 (16:10) 15.3 (00:00) 17.8 11.94 (11:40) 9.44 (09:10) 0 0 0 0 0
24-07-2017 20.6 (17:20) 15.8 (00:00) 18.2 12.22 (20:30) 10 (20:30) 0.7 0.2 0.5 0 0
23-07-2017 21.6 (16:00) 15.2 (00:00) 18.4 6.67 (23:50) 4.72 (15:10) 0.5 0 0 0 0.5

Gráficas

Temp. máximas Temp. mínimas Temp. medias Precipitaciones Rachas de viento máximas Velocidades máximas media en intervalos de 10 minutos

Datos horarios

Fecha y hora oficial Temperatura (ºC) Velocidad del viento (km/h) Dirección del viento Racha (km/h) Dirección de racha Precipitación (mm) Presión (hPa) Tendencia (hPa) Humedad (%)
2017-08-21 23:00:00 16.6 27 Sudoeste 35 Sudoeste 0 -- -- 98
2017-08-21 22:00:00 17.9 20 Sur 32 Sudoeste 0 -- -- 93
2017-08-21 21:00:00 18.2 25 Sudoeste 41 Sudoeste 0 -- -- 89
2017-08-21 20:00:00 18.9 27 Sudoeste 44 Sudoeste 0 -- -- 85
2017-08-21 19:00:00 20.6 19 Sudoeste 39 Sudoeste 0 -- -- 72
2017-08-21 18:00:00 26.1 9 Sudoeste 30 Sudoeste 0 -- -- 50
2017-08-21 17:00:00 28.1 16 Sur 39 Sudoeste 0 -- -- 44
2017-08-21 16:00:00 25.2 21 Sur 40 Sudoeste 0 -- -- 41
2017-08-21 15:00:00 25.5 23 Sudoeste 37 Sudoeste 0 -- -- 47
2017-08-21 14:00:00 28.4 12 Sudoeste 18 Sudoeste 0 -- -- 38
2017-08-21 13:00:00 31.8 5 Sudoeste 12 Sudoeste 0 -- -- 34
2017-08-21 12:00:00 31.4 6 Sudoeste 10 Sur 0 -- -- 37
2017-08-21 11:00:00 29.9 5 Sudoeste 10 Sur 0 -- -- 38
2017-08-21 10:00:00 27.5 6 Sur 14 Sudeste 0 -- -- 43
2017-08-21 09:00:00 23.4 9 Sudeste 17 Sudeste 0 -- -- 53
2017-08-21 08:00:00 21.7 13 Sudeste 15 Sudeste 0 -- -- 62
2017-08-21 07:00:00 19.7 8 Nordeste 12 Este 0 -- -- 74
2017-08-21 06:00:00 18.4 10 Nordeste 15 Nordeste 0 -- -- 81
2017-08-21 05:00:00 17.2 14 Nordeste 21 Nordeste 0 -- -- 88
2017-08-21 04:00:00 16.3 13 Nordeste 18 Nordeste 0 -- -- 89
2017-08-21 03:00:00 16.4 12 Nordeste 34 Nordeste 0 -- -- 89
2017-08-21 02:00:00 16.2 20 Nordeste 27 Nordeste 0 -- -- 89
2017-08-21 01:00:00 17.2 18 Nordeste 58 Norte 0 -- -- 84
2017-08-21 00:00:00 18.1 26 Nordeste 32 Nordeste 0 -- -- 79
2017-08-20 23:00:00 17.6 23 Nordeste 28 Nordeste 0 -- -- 86
2017-08-20 22:00:00 18.1 24 Nordeste 37 Norte 0 -- -- 82
2017-08-20 21:00:00 18.1 32 Norte 42 Nordeste 0 -- -- 84
2017-08-20 20:00:00 18.5 37 Nordeste 44 Nordeste 0 -- -- 81
2017-08-20 19:00:00 19 39 Nordeste 45 Nordeste 0 -- -- 79
2017-08-20 18:00:00 19.7 39 Nordeste 46 Nordeste 0 -- -- 75
2017-08-20 17:00:00 19.9 36 Nordeste 43 Nordeste 0 -- -- 72
2017-08-20 16:00:00 20.6 32 Nordeste 47 Nordeste 0 -- -- 70
2017-08-20 15:00:00 19.9 43 Nordeste 57 Nordeste 0 -- -- 77
2017-08-20 14:00:00 19.4 49 Nordeste 60 Nordeste 0 -- -- 82
2017-08-20 13:00:00 19.2 33 Nordeste 45 Nordeste 0 -- -- 77
2017-08-20 12:00:00 19.5 36 Nordeste 43 Nordeste 0 -- -- 76
2017-08-20 11:00:00 19.7 29 Nordeste 44 Nordeste 0 -- -- 77
2017-08-20 10:00:00 18.9 32 Nordeste 50 Nordeste 0 -- -- 80
2017-08-20 09:00:00 18 33 Nordeste 48 Nordeste 0 -- -- 84
2017-08-20 08:00:00 17.2 31 Nordeste 46 Nordeste 0 -- -- 89
2017-08-20 07:00:00 17 27 Nordeste 44 Nordeste 0 -- -- 90
2017-08-20 06:00:00 17.1 29 Nordeste 42 Nordeste 0 -- -- 90
2017-08-20 05:00:00 16.8 23 Nordeste 39 Nordeste 0 -- -- 90
2017-08-20 04:00:00 16.9 24 Nordeste 38 Nordeste 0 -- -- 89
2017-08-20 03:00:00 17.1 24 Nordeste 43 Nordeste 0 -- -- 89
2017-08-20 02:00:00 17 26 Nordeste 45 Nordeste 0 -- -- 90
2017-08-20 01:00:00 17.4 34 Nordeste 61 Nordeste 0 -- -- 89
2017-08-20 00:00:00 17.4 37 Nordeste 60 Nordeste 0 -- -- 89
2017-08-19 23:00:00 17.4 45 Nordeste 67 Nordeste 0 -- -- 88
2017-08-19 22:00:00 17.3 46 Nordeste 66 Nordeste 0 -- -- 86
2017-08-19 21:00:00 17.7 48 Nordeste 59 Nordeste 0 -- -- 82
2017-08-19 20:00:00 18.1 46 Nordeste 59 Nordeste 0 -- -- 79
2017-08-19 19:00:00 18.7 46 Nordeste 57 Nordeste 0 -- -- 74
2017-08-19 18:00:00 19.1 47 Nordeste 57 Nordeste 0 -- -- 73
2017-08-19 17:00:00 19.3 48 Nordeste 57 Nordeste 0 -- -- 70
2017-08-19 16:00:00 19.3 48 Nordeste 64 Nordeste 0 -- -- 70
2017-08-19 15:00:00 18.9 46 Nordeste 61 Nordeste 0 -- -- 72
2017-08-19 14:00:00 19.2 49 Nordeste 61 Nordeste 0 -- -- 70
2017-08-19 13:00:00 19 50 Nordeste 61 Nordeste 0 -- -- 72
2017-08-19 12:00:00 18.9 48 Nordeste 59 Nordeste 0 -- -- 76
2017-08-19 11:00:00 18.4 44 Nordeste 54 Nordeste 0 -- -- 79
2017-08-19 10:00:00 17.7 42 Nordeste 51 Nordeste 0 -- -- 83
2017-08-19 09:00:00 17.4 31 Nordeste 44 Este 0 -- -- 87
2017-08-19 08:00:00 17.2 28 Nordeste 43 Nordeste 0 -- -- 86
2017-08-19 07:00:00 17.1 30 Nordeste 41 Nordeste 0 -- -- 88
2017-08-19 06:00:00 16.9 30 Nordeste 41 Nordeste 0 -- -- 90
2017-08-19 05:00:00 16.3 33 Nordeste 42 Nordeste 0 -- -- 94
2017-08-19 04:00:00 16.3 32 Nordeste 44 Nordeste 0 -- -- 94
2017-08-19 03:00:00 16.7 36 Nordeste 46 Nordeste 0 -- -- 93
2017-08-19 02:00:00 16.8 34 Nordeste 49 Nordeste 0 -- -- 94
2017-08-19 01:00:00 17.1 35 Nordeste 53 Nordeste 0 -- -- 94
2017-08-19 00:00:00 17 35 Nordeste 43 Nordeste 0 -- -- 95
2017-08-18 23:00:00 17.3 35 Nordeste 46 Nordeste 0 -- -- 95
2017-08-18 22:00:00 17.1 29 Nordeste 40 Nordeste 0 -- -- 96
2017-08-18 21:00:00 18.1 30 Nordeste 37 Nordeste 0 -- -- 92
2017-08-18 20:00:00 18.8 28 Nordeste 37 Nordeste 0 -- -- 88
2017-08-18 19:00:00 19.4 28 Nordeste 36 Nordeste 0 -- -- 87
2017-08-18 18:00:00 19.9 27 Nordeste 33 Nordeste 0 -- -- 87
2017-08-18 17:00:00 20.3 26 Nordeste 31 Nordeste 0 -- -- 84
2017-08-18 16:00:00 21.4 26 Nordeste 31 Nordeste 0 -- -- 84
2017-08-18 15:00:00 22 13 Norte 19 Norte 0 -- -- 84
2017-08-18 14:00:00 22.9 12 Noroeste 17 Norte 0 -- -- 82
2017-08-18 13:00:00 21.9 8 Nordeste 13 Nordeste 0 -- -- 98
2017-08-18 12:00:00 20.3 8 Nordeste 13 Nordeste 0 -- -- 99
2017-08-18 11:00:00 20.3 7 Nordeste 10 Nordeste 0 -- -- 99
2017-08-18 10:00:00 19.9 5 Nordeste 7 Nordeste 0 -- -- 99
2017-08-18 09:00:00 19 6 Norte 9 Norte 0 -- -- 99
2017-08-18 08:00:00 18.6 0 Calma 10 Sudoeste 0.1 -- -- 99
2017-08-18 07:00:00 18 8 Sudoeste 17 Oeste 0 -- -- 99
2017-08-18 06:00:00 18.7 8 Sudoeste 18 Sur 0.2 -- -- 99
2017-08-18 05:00:00 19.3 13 Sur 21 Sur 0.7 -- -- 99
2017-08-18 04:00:00 18.8 13 Sudoeste 27 Sur 0.5 -- -- 99
2017-08-18 03:00:00 18.8 19 Sur 25 Sur 0 -- -- 99
2017-08-18 02:00:00 18.9 18 Sur 24 Sudoeste 0.2 -- -- 99
2017-08-18 01:00:00 18.9 19 Sudoeste 24 Sudoeste 0 -- -- 98
2017-08-18 00:00:00 19 15 Sudoeste 20 Sudoeste 0 -- -- 97
2017-08-17 23:00:00 19.2 16 Sur 21 Sudoeste 0 -- -- 97
2017-08-17 22:00:00 19 16 Sudoeste 22 Sudoeste 0 -- -- 97
2017-08-17 21:00:00 19.6 18 Sudoeste 24 Sudoeste 0 -- -- 93
2017-08-17 20:00:00 20.3 17 Sudoeste 25 Sudoeste 0 -- -- 88
2017-08-17 19:00:00 21.5 20 Sudoeste 30 Sudoeste 0 -- -- 84
2017-08-17 18:00:00 22.4 24 Sudoeste 28 Sudoeste 0 -- -- 77
2017-08-17 17:00:00 23.4 21 Sudoeste 27 Sudoeste 0 -- -- 73
2017-08-17 16:00:00 23.4 21 Sudoeste 27 Sudoeste 0 -- -- 74
2017-08-17 15:00:00 23.5 20 Sudoeste 26 Sudoeste 0 -- -- 77
2017-08-17 14:00:00 23.5 21 Sudoeste 25 Sudoeste 0 -- -- 78
2017-08-17 13:00:00 22.2 19 Sudoeste 25 Sudoeste 0 -- -- 87
2017-08-17 12:00:00 20.7 18 Sur 23 Sur 0 -- -- 97
2017-08-17 11:00:00 19.7 17 Sudoeste 22 Sudoeste 0 -- -- 97
2017-08-17 10:00:00 19.3 15 Sudoeste 23 Sur 0 -- -- 97
2017-08-17 09:00:00 18.5 16 Sudoeste 21 Sur 0 -- -- 97
2017-08-17 08:00:00 18.6 12 Sur 18 Sur 0 -- -- 97
2017-08-17 07:00:00 18.8 18 Sur 22 Sur 0 -- -- 96
2017-08-17 06:00:00 18.6 15 Sudoeste 21 Sur 0 -- -- 95
2017-08-17 05:00:00 18.6 13 Sudoeste 19 Sur 0 -- -- 97
2017-08-17 04:00:00 18.2 16 Sur 22 Sudoeste 0 -- -- 99
2017-08-17 03:00:00 18.5 16 Sur 22 Sudoeste 0 -- -- 98
2017-08-17 02:00:00 18.8 16 Sudoeste 20 Sudoeste 0 -- -- 98
2017-08-17 01:00:00 19 15 Sur 19 Sur 0 -- -- 98
2017-08-17 00:00:00 19.3 14 Sur 18 Sudoeste 0 -- -- 98
2017-08-16 23:00:00 19.3 15 Sur 20 Sudoeste 0 -- -- 97
2017-08-16 22:00:00 19.2 15 Sudoeste 21 Sudoeste 0 -- -- 97
2017-08-16 21:00:00 19.8 14 Sudoeste 21 Sudoeste 0 -- -- 94
2017-08-16 20:00:00 20.3 17 Sudoeste 22 Sudoeste 0 -- -- 91
2017-08-16 19:00:00 20.1 17 Sudoeste 30 Sudoeste 0 -- -- 89
2017-08-16 18:00:00 19.7 23 Sudoeste 32 Sudoeste 0 -- -- 83
2017-08-16 17:00:00 21.2 24 Sudoeste 31 Sudoeste 0 -- -- 74
2017-08-16 16:00:00 20.8 25 Sudoeste 34 Sudoeste 0 -- -- 74
2017-08-16 15:00:00 21.7 26 Sudoeste 34 Sudoeste 0 -- -- 72
2017-08-16 14:00:00 21.5 28 Sudoeste 35 Sudoeste 0 -- -- 72
2017-08-16 13:00:00 21.4 25 Sudoeste 33 Sudoeste 0 -- -- 70
2017-08-16 12:00:00 21.7 22 Sudoeste 28 Sudoeste 0 -- -- 72
2017-08-16 11:00:00 20.9 18 Sur 24 Sur 0 -- -- 77
2017-08-16 10:00:00 18.7 15 Sur 21 Sur 0 -- -- 82
2017-08-16 09:00:00 16.7 17 Sur 21 Sur 0 -- -- 87
2017-08-16 08:00:00 15.5 17 Sur 19 Sur 0 -- -- 89
2017-08-16 07:00:00 15.4 13 Sur 15 Sur 0 -- -- 93
2017-08-16 06:00:00 15.3 12 Sur 14 Sur 0 -- -- 94
2017-08-16 05:00:00 15.2 9 Sur 12 Sur 0 -- -- 94
2017-08-16 04:00:00 15.1 5 Sudeste 10 Sudeste 0 -- -- 94
2017-08-16 03:00:00 15.6 3 Sur 10 Sudeste 0 -- -- 94
2017-08-16 02:00:00 15.4 6 Sudeste 9 Sudeste 0 -- -- 93
2017-08-16 01:00:00 15.9 4 Sudeste 5 Sudeste 0 -- -- 89
2017-08-16 00:00:00 16.2 0 Calma 5 Nordeste 0 -- -- 90
2017-08-15 23:00:00 16 5 Nordeste 6 Nordeste 0 -- -- 90
2017-08-15 22:00:00 16.2 3 Nordeste 9 Norte 0 -- -- 92
2017-08-15 21:00:00 17.7 7 Norte 13 Nordeste 0 -- -- 84
2017-08-15 20:00:00 18.2 11 Norte 16 Norte 0 -- -- 83
2017-08-15 19:00:00 19.4 13 Norte 17 Norte 0 -- -- 79
2017-08-15 18:00:00 19.9 14 Norte 18 Norte 0 -- -- 76
2017-08-15 17:00:00 21.2 13 Norte 17 Norte 0 -- -- 73
2017-08-15 16:00:00 20.8 10 Norte 13 Norte 0 -- -- 75
2017-08-15 15:00:00 20.5 9 Norte 12 Norte 0 -- -- 74
2017-08-15 14:00:00 21.3 8 Norte 11 Norte 0 -- -- 79
2017-08-15 13:00:00 19.5 7 Nordeste 13 Norte 0 -- -- 90
2017-08-15 12:00:00 19.2 7 Nordeste 9 Nordeste 0 -- -- 96
2017-08-15 11:00:00 18 5 Nordeste 8 Nordeste 0 -- -- 99
2017-08-15 10:00:00 17.4 3 Nordeste 9 Nordeste 0 -- -- 99
2017-08-15 09:00:00 16.7 7 Nordeste 9 Nordeste 0 -- -- 99
2017-08-15 08:00:00 16.4 7 Nordeste 12 Nordeste 0 -- -- 99
2017-08-15 07:00:00 16.6 10 Nordeste 13 Nordeste 0.1 -- -- 99
2017-08-15 06:00:00 16.8 7 Norte 15 Norte 0.8 -- -- 98
2017-08-15 05:00:00 17.3 6 Sudoeste 10 Sudoeste 0 -- -- 98
2017-08-15 04:00:00 17.5 0 Calma 3 Sudeste 0 -- -- 98
2017-08-15 03:00:00 17.5 0 Calma 3 Este 0 -- -- 98
2017-08-15 02:00:00 17.5 0 Calma 4 Norte 0 -- -- 98
2017-08-15 01:00:00 17.3 3 Norte 8 Este 0 -- -- 97
2017-08-15 00:00:00 17.4 4 Nordeste 9 Nordeste 0 -- -- 97
2017-08-14 23:00:00 17.8 5 Norte 10 Norte 0 -- -- 97
2017-08-14 22:00:00 18.1 5 Norte 12 Nordeste 0 -- -- 97
2017-08-14 21:00:00 18.7 6 Nordeste 9 Norte 0 -- -- 95
2017-08-14 20:00:00 19.8 5 Norte 9 Norte 0 -- -- 92
2017-08-14 19:00:00 20.1 5 Norte 13 Norte 0 -- -- 90
2017-08-14 18:00:00 20.9 10 Norte 15 Norte 0 -- -- 88
2017-08-14 17:00:00 20.5 11 Norte 19 Noroeste 0 -- -- 86
2017-08-14 16:00:00 21.8 12 Noroeste 19 Norte 0 -- -- 84
2017-08-14 15:00:00 20.9 8 Noroeste 12 Noroeste 0 -- -- 90
2017-08-14 14:00:00 20.7 5 Noroeste 10 Noroeste 0 -- -- 94
2017-08-14 13:00:00 19.7 4 Noroeste 12 Norte 0 -- -- 98
2017-08-14 12:00:00 19.4 8 Norte 18 Norte 0 -- -- 98
2017-08-14 11:00:00 18.1 9 Noroeste 18 Noroeste 0 -- -- 99
2017-08-14 10:00:00 15.9 9 Sur 22 Sudoeste 0 -- -- 99
2017-08-14 09:00:00 16.9 12 Sur 15 Sudoeste 0 -- -- 99
2017-08-14 08:00:00 16.1 8 Sudeste 12 Sudeste 0 -- -- 98
2017-08-14 07:00:00 16.8 0 Calma 5 Noroeste 0 -- -- 98
2017-08-14 06:00:00 15.4 5 Sudoeste 8 Sudoeste 0 -- -- 98
2017-08-14 05:00:00 16 5 Sur 7 Sudoeste 0 -- -- 98
2017-08-14 04:00:00 16.2 2 Sudoeste 8 Nordeste 0 -- -- 98
2017-08-14 03:00:00 15.3 5 Nordeste 8 Nordeste 0 -- -- 98
2017-08-14 02:00:00 16.2 5 Este 16 Nordeste 0 -- -- 98
2017-08-14 01:00:00 15.9 15 Nordeste 46 Nordeste 0 -- -- 98
2017-08-14 00:00:00 15.8 13 Nordeste 19 Nordeste 0 -- -- 98
2017-08-13 23:00:00 15.7 12 Nordeste 23 Nordeste 0 -- -- 96
2017-08-13 22:00:00 17.4 9 Norte 24 Este 0 -- -- 87
2017-08-13 21:00:00 17.4 24 Nordeste 43 Nordeste 0 -- -- 92
2017-08-13 20:00:00 18.4 36 Nordeste 44 Nordeste 0 -- -- 86
2017-08-13 19:00:00 19 38 Nordeste 49 Nordeste 0 -- -- 83
2017-08-13 18:00:00 19.5 33 Nordeste 50 Nordeste 0 -- -- 81
2017-08-13 17:00:00 19.7 41 Nordeste 60 Nordeste 0 -- -- 81
2017-08-13 16:00:00 19.7 50 Nordeste 58 Nordeste 0 -- -- 79
2017-08-13 15:00:00 20.1 46 Nordeste 55 Nordeste 0 -- -- 76
2017-08-13 14:00:00 19.5 46 Nordeste 59 Nordeste 0 -- -- 77
2017-08-13 13:00:00 19.2 40 Nordeste 48 Nordeste 0 -- -- 72
2017-08-13 12:00:00 19.4 36 Nordeste 46 Nordeste 0 -- -- 74
2017-08-13 11:00:00 18 31 Nordeste 41 Nordeste 0 -- -- 83
2017-08-13 10:00:00 17 28 Nordeste 42 Nordeste 0 -- -- 83
2017-08-13 09:00:00 17.4 26 Nordeste 39 Nordeste 0 -- -- 86
2017-08-13 08:00:00 16.4 29 Nordeste 43 Nordeste 0 -- -- 93
2017-08-13 07:00:00 16.5 28 Nordeste 46 Nordeste 0 -- -- 94
2017-08-13 06:00:00 16.5 32 Nordeste 56 Nordeste 0 -- -- 96
2017-08-13 05:00:00 16.5 32 Nordeste 53 Nordeste 0 -- -- 96
2017-08-13 04:00:00 16.6 37 Nordeste 53 Nordeste 0 -- -- 95
2017-08-13 03:00:00 16.6 31 Nordeste 54 Nordeste 0 -- -- 95
2017-08-13 02:00:00 16.9 30 Nordeste 52 Nordeste 0 -- -- 95
2017-08-13 01:00:00 17 39 Nordeste 58 Nordeste 0 -- -- 96
2017-08-13 00:00:00 16.9 37 Nordeste 53 Nordeste 0 -- -- 95
2017-08-12 23:00:00 17 36 Nordeste 53 Nordeste 0 -- -- 93
2017-08-12 22:00:00 16.9 38 Nordeste 52 Nordeste 0 -- -- 94
2017-08-12 21:00:00 17.2 40 Nordeste 52 Nordeste 0 -- -- 92
2017-08-12 20:00:00 17.7 37 Nordeste 51 Nordeste 0 -- -- 87
2017-08-12 19:00:00 18.1 41 Nordeste 53 Nordeste 0 -- -- 85
2017-08-12 18:00:00 18.4 41 Nordeste 50 Nordeste 0 -- -- 83
2017-08-12 17:00:00 18.8 42 Nordeste 48 Nordeste 0 -- -- 83
2017-08-12 16:00:00 18.3 43 Nordeste 52 Nordeste 0 -- -- 83
2017-08-12 15:00:00 18.5 44 Nordeste 51 Nordeste 0 -- -- 83
2017-08-12 14:00:00 18.7 40 Nordeste 50 Nordeste 0 -- -- 83
2017-08-12 13:00:00 18.6 41 Nordeste 50 Nordeste 0 -- -- 83
2017-08-12 12:00:00 18.1 38 Nordeste 51 Nordeste 0 -- -- 86
2017-08-12 11:00:00 17.5 37 Nordeste 49 Nordeste 0 -- -- 87
2017-08-12 10:00:00 17.1 36 Nordeste 46 Nordeste 0 -- -- 92
2017-08-12 09:00:00 16.7 32 Nordeste 48 Nordeste 0 -- -- 95
2017-08-12 08:00:00 15.9 31 Nordeste 89 Nordeste 0 -- -- 96
2017-08-12 07:00:00 15.8 32 Nordeste 43 Nordeste 0 -- -- 95
2017-08-12 06:00:00 15.8 25 Nordeste 42 Nordeste 0 -- -- 95
2017-08-12 05:00:00 15.9 29 Nordeste 46 Nordeste 0 -- -- 95
2017-08-12 04:00:00 16.3 31 Nordeste 50 Nordeste 0 -- -- 94
2017-08-12 03:00:00 16.1 39 Nordeste 50 Nordeste 0 -- -- 96
2017-08-12 02:00:00 15.7 35 Nordeste 44 Nordeste 0 -- -- 98
2017-08-12 01:00:00 15.9 36 Nordeste 44 Nordeste 0 -- -- 97
2017-08-12 00:00:00 15.9 34 Nordeste 48 Nordeste 0 -- -- 96
2017-08-11 23:00:00 16.4 41 Nordeste 54 Nordeste 0 -- -- 94
2017-08-11 22:00:00 16.2 35 Nordeste 55 Nordeste 0 -- -- 94
2017-08-11 21:00:00 17.2 41 Nordeste 54 Nordeste 0 -- -- 87
2017-08-11 20:00:00 17.9 44 Nordeste 56 Nordeste 0 -- -- 83
2017-08-11 19:00:00 18.2 40 Nordeste 49 Nordeste 0 -- -- 80
2017-08-11 18:00:00 18.7 43 Nordeste 54 Nordeste 0 -- -- 77
2017-08-11 17:00:00 18.9 44 Nordeste 54 Nordeste 0 -- -- 77
2017-08-11 16:00:00 19.1 42 Nordeste 49 Nordeste 0 -- -- 77
2017-08-11 15:00:00 18.8 40 Nordeste 51 Nordeste 0 -- -- 77
2017-08-11 14:00:00 18.9 42 Nordeste 61 Nordeste 0 -- -- 74
2017-08-11 13:00:00 18.8 51 Nordeste 62 Nordeste 0 -- -- 70
2017-08-11 12:00:00 18.6 51 Nordeste 62 Nordeste 0 -- -- 70
2017-08-11 11:00:00 18.1 43 Nordeste 57 Nordeste 0 -- -- 76
2017-08-11 10:00:00 17.3 35 Nordeste 49 Nordeste 0 -- -- 79
2017-08-11 09:00:00 17 34 Nordeste 52 Nordeste 0 -- -- 79
2017-08-11 08:00:00 16 31 Nordeste 49 Nordeste 0 -- -- 84
2017-08-11 07:00:00 15.7 29 Nordeste 51 Nordeste 0 -- -- 85
2017-08-11 06:00:00 16 31 Nordeste 51 Nordeste 0 -- -- 84
2017-08-11 05:00:00 15.9 32 Nordeste 52 Nordeste 0 -- -- 88
2017-08-11 04:00:00 15.8 35 Nordeste 48 Nordeste 0 -- -- 86
2017-08-11 03:00:00 16.1 33 Nordeste 51 Nordeste 0 -- -- 85
2017-08-11 02:00:00 16 39 Nordeste 59 Nordeste 0 -- -- 85
2017-08-11 01:00:00 16.1 48 Nordeste 64 Nordeste 0 -- -- 85
2017-08-11 00:00:00 16.1 46 Nordeste 58 Nordeste 0 -- -- 85
2017-08-10 23:00:00 16 44 Nordeste 60 Nordeste 0 -- -- 85
2017-08-10 22:00:00 16.2 42 Nordeste 59 Nordeste 0 -- -- 83
2017-08-10 21:00:00 16.6 45 Nordeste 57 Nordeste 0 -- -- 81
2017-08-10 20:00:00 17.1 48 Nordeste 58 Nordeste 0 -- -- 79
2017-08-10 19:00:00 17.8 49 Nordeste 61 Nordeste 0 -- -- 76
2017-08-10 18:00:00 18.2 48 Nordeste 58 Nordeste 0 -- -- 73
2017-08-10 17:00:00 18.6 49 Nordeste 58 Nordeste 0 -- -- 70
2017-08-10 16:00:00 19 41 Nordeste 53 Nordeste 0 -- -- 69
2017-08-10 15:00:00 19 39 Nordeste 45 Nordeste 0 -- -- 70
2017-08-10 14:00:00 19.1 37 Nordeste 44 Nordeste 0 -- -- 70
2017-08-10 13:00:00 19.1 35 Nordeste 48 Nordeste 0 -- -- 67
2017-08-10 12:00:00 18.3 40 Nordeste 49 Nordeste 0 -- -- 67
2017-08-10 11:00:00 17.8 30 Nordeste 45 Nordeste 0 -- -- 70
2017-08-10 10:00:00 17.1 28 Nordeste 41 Nordeste 0 -- -- 74
2017-08-10 09:00:00 16.5 26 Nordeste 44 Nordeste 0 -- -- 77
2017-08-10 08:00:00 16 26 Nordeste 41 Nordeste 0 -- -- 84
2017-08-10 07:00:00 15.8 25 Nordeste 49 Nordeste 0 -- -- 86
2017-08-10 06:00:00 15.6 30 Nordeste 39 Nordeste 0 -- -- 90
2017-08-10 05:00:00 15.3 30 Nordeste 40 Nordeste 0 -- -- 89
2017-08-10 04:00:00 15.5 34 Nordeste 39 Nordeste 0 -- -- 88
2017-08-10 03:00:00 15.6 30 Nordeste 35 Nordeste 0 -- -- 90
2017-08-10 02:00:00 15.6 33 Nordeste 41 Nordeste 0 -- -- 87
2017-08-10 01:00:00 15.8 36 Nordeste 45 Nordeste 0 -- -- 85
2017-08-10 00:00:00 16.1 40 Nordeste 49 Nordeste 0 -- -- 82
2017-08-09 23:00:00 16 38 Nordeste 47 Nordeste 0 -- -- 85
2017-08-09 22:00:00 16 41 Nordeste 47 Nordeste 0 -- -- 83
2017-08-09 21:00:00 16.8 37 Nordeste 44 Nordeste 0 -- -- 79
2017-08-09 20:00:00 17.4 36 Nordeste 44 Nordeste 0 -- -- 73
2017-08-09 19:00:00 18 39 Nordeste 46 Nordeste 0 -- -- 69
2017-08-09 18:00:00 18.4 38 Nordeste 46 Nordeste 0 -- -- 67
2017-08-09 17:00:00 18.9 37 Nordeste 43 Nordeste 0 -- -- 64
2017-08-09 16:00:00 18.9 33 Norte 40 Norte 0 -- -- 65
2017-08-09 15:00:00 17.4 34 Norte 42 Nordeste 0 -- -- 69
2017-08-09 14:00:00 18.9 35 Nordeste 43 Nordeste 0 -- -- 62
2017-08-09 13:00:00 19.2 31 Nordeste 39 Nordeste 0 -- -- 61
2017-08-09 12:00:00 17.4 34 Norte 41 Norte 0 -- -- 65
2017-08-09 11:00:00 17.2 33 Norte 40 Nordeste 0 -- -- 65
2017-08-09 10:00:00 16.8 31 Norte 38 Nordeste 0 -- -- 68
2017-08-09 09:00:00 16.3 31 Norte 45 Nordeste 0 -- -- 72
2017-08-09 08:00:00 15.5 33 Nordeste 45 Norte 0 -- -- 76
2017-08-09 07:00:00 15.6 36 Norte 44 Nordeste 0 -- -- 76
2017-08-09 06:00:00 15.6 32 Norte 40 Norte 0 -- -- 79
2017-08-09 05:00:00 15.7 31 Norte 39 Norte 0 -- -- 77
2017-08-09 04:00:00 15.7 32 Norte 40 Norte 0 -- -- 84
2017-08-09 03:00:00 15.3 16 Norte 27 Norte 0 -- -- 88
2017-08-09 02:00:00 15.4 20 Norte 37 Norte 0 -- -- 82
2017-08-09 01:00:00 16.2 16 Norte 24 Norte 0 -- -- 77
2017-08-09 00:00:00 15.9 13 Norte 19 Norte 0 -- -- 80
2017-08-08 23:00:00 15.9 13 Norte 20 Norte 0 -- -- 79
2017-08-08 22:00:00 16.6 10 Noroeste 16 Noroeste 0 -- -- 77
2017-08-08 21:00:00 18.6 9 Noroeste 14 Noroeste 0 -- -- 70
2017-08-08 20:00:00 19.6 9 Norte 24 Norte 0 -- -- 70
2017-08-08 19:00:00 18.9 13 Noroeste 21 Norte 0 -- -- 62
2017-08-08 18:00:00 19.9 12 Noroeste 20 Norte 0 -- -- 60
2017-08-08 17:00:00 20.7 13 Norte 18 Norte 0 -- -- 62
2017-08-08 16:00:00 20.1 10 Norte 17 Nordeste 0 -- -- 65
2017-08-08 15:00:00 19.2 15 Nordeste 24 Norte 0 -- -- 70
2017-08-08 14:00:00 20.6 11 Norte 18 Norte 0 -- -- 62
2017-08-08 13:00:00 20.7 11 Norte 18 Norte 0 -- -- 61
2017-08-08 12:00:00 19.6 12 Norte 18 Norte 0 -- -- 68
2017-08-08 11:00:00 18.6 11 Norte 18 Norte 0 -- -- 72
2017-08-08 10:00:00 17.5 12 Nordeste 21 Norte 0 -- -- 79
2017-08-08 09:00:00 16.3 15 Norte 26 Norte 0 -- -- 86
2017-08-08 08:00:00 15 15 Norte 23 Norte 0 -- -- 94
2017-08-08 07:00:00 15 15 Norte 22 Norte 0 -- -- 94
2017-08-08 06:00:00 15 15 Norte 20 Norte 0 -- -- 94
2017-08-08 05:00:00 14.7 19 Norte 27 Norte 0 -- -- 94
2017-08-08 04:00:00 15.2 22 Norte 28 Norte 0 -- -- 94
2017-08-08 03:00:00 15.2 24 Norte 29 Norte 0 -- -- 94
2017-08-08 02:00:00 15.6 16 Norte 21 Norte 0 -- -- 93
2017-08-08 01:00:00 15 12 Norte 18 Nordeste 0 -- -- 92
2017-08-08 00:00:00 15 10 Nordeste 21 Nordeste 0 -- -- 92
2017-08-07 23:00:00 15 19 Nordeste 24 Nordeste 0 -- -- 92
2017-08-07 22:00:00 15.1 16 Norte 22 Norte 0 -- -- 92
2017-08-07 21:00:00 16.7 19 Norte 24 Norte 0 -- -- 84
2017-08-07 20:00:00 17.8 17 Norte 24 Nordeste 0 -- -- 77
2017-08-07 19:00:00 18.3 21 Nordeste 25 Nordeste 0 -- -- 72
2017-08-07 18:00:00 18.4 22 Nordeste 26 Norte 0 -- -- 72
2017-08-07 17:00:00 18.4 22 Norte 26 Norte 0 -- -- 72
2017-08-07 16:00:00 19.2 22 Norte 27 Nordeste 0 -- -- 72
2017-08-07 15:00:00 19.7 26 Nordeste 31 Nordeste 0 -- -- 72
2017-08-07 14:00:00 16.4 24 Nordeste 34 Nordeste 0 -- -- 91
2017-08-07 13:00:00 16 31 Nordeste 38 Nordeste 0 -- -- 94
2017-08-07 12:00:00 16 37 Nordeste 45 Nordeste 0 -- -- 96
2017-08-07 11:00:00 15.7 37 Nordeste 53 Nordeste 0 -- -- 96
2017-08-07 10:00:00 15.5 42 Nordeste 52 Nordeste 0 -- -- 97
2017-08-07 09:00:00 15.8 41 Nordeste 52 Norte 0 -- -- 95
2017-08-07 08:00:00 15.7 42 Nordeste 51 Norte 0 -- -- 96
2017-08-07 07:00:00 15.8 44 Nordeste 52 Nordeste 0 -- -- 94
2017-08-07 06:00:00 15.9 44 Nordeste 52 Nordeste 0 -- -- 92
2017-08-07 05:00:00 15.9 44 Nordeste 52 Nordeste 0 -- -- 92
2017-08-07 04:00:00 16 44 Nordeste 53 Nordeste 0 -- -- 90
2017-08-07 03:00:00 16.1 44 Nordeste 64 Nordeste 0 -- -- 86
2017-08-07 02:00:00 16.8 54 Nordeste 70 Nordeste 0 -- -- 83
2017-08-07 01:00:00 16.8 53 Nordeste 71 Nordeste 0 -- -- 85
2017-08-07 00:00:00 17 57 Nordeste 76 Nordeste 0 -- -- 85
2017-08-06 23:00:00 16.9 57 Nordeste 72 Nordeste 0 -- -- 87
2017-08-06 22:00:00 17 56 Nordeste 74 Nordeste 0 -- -- 86
2017-08-06 21:00:00 17.5 56 Nordeste 72 Nordeste 0 -- -- 83
2017-08-06 20:00:00 17.9 54 Nordeste 77 Nordeste 0 -- -- 77
2017-08-06 19:00:00 18.4 56 Nordeste 74 Nordeste 0 -- -- 72
2017-08-06 18:00:00 18.6 57 Nordeste 69 Nordeste 0 -- -- 73
2017-08-06 17:00:00 18.7 58 Nordeste 73 Nordeste 0 -- -- 72
2017-08-06 16:00:00 18.9 54 Nordeste 66 Nordeste 0 -- -- 72
2017-08-06 15:00:00 18.8 55 Nordeste 68 Nordeste 0 -- -- 72
2017-08-06 14:00:00 18.7 57 Nordeste 70 Nordeste 0 -- -- 73
2017-08-06 13:00:00 18.5 58 Nordeste 73 Nordeste 0 -- -- 72
2017-08-06 12:00:00 18.3 53 Nordeste 75 Nordeste 0 -- -- 70
2017-08-06 11:00:00 17.8 55 Nordeste 71 Nordeste 0 -- -- 72
2017-08-06 10:00:00 17.5 55 Nordeste 71 Nordeste 0 -- -- 74
2017-08-06 09:00:00 17 51 Nordeste 70 Nordeste 0 -- -- 79
2017-08-06 08:00:00 16.3 51 Nordeste 63 Nordeste 0 -- -- 84
2017-08-06 07:00:00 16.2 51 Nordeste 59 Nordeste 0 -- -- 86
2017-08-06 06:00:00 16.3 50 Nordeste 61 Nordeste 0 -- -- 86
2017-08-06 05:00:00 16.4 50 Nordeste 63 Nordeste 0 -- -- 86
2017-08-06 04:00:00 16.2 50 Nordeste 62 Nordeste 0 -- -- 85
2017-08-06 03:00:00 16.1 51 Nordeste 60 Nordeste 0 -- -- 86
2017-08-06 02:00:00 16.3 50 Nordeste 62 Nordeste 0 -- -- 83
2017-08-06 01:00:00 16.3 52 Nordeste 63 Nordeste 0 -- -- 82
2017-08-06 00:00:00 16.3 48 Nordeste 64 Nordeste 0 -- -- 83
2017-08-05 23:00:00 16.2 50 Nordeste 62 Nordeste 0 -- -- 85
2017-08-05 22:00:00 16.5 50 Nordeste 61 Nordeste 0 -- -- 86
2017-08-05 21:00:00 17 53 Nordeste 62 Nordeste 0 -- -- 79
2017-08-05 20:00:00 17.6 50 Nordeste 62 Nordeste 0 -- -- 77
2017-08-05 19:00:00 17.9 48 Nordeste 58 Nordeste 0 -- -- 74
2017-08-05 18:00:00 18.5 49 Nordeste 59 Nordeste 0 -- -- 72
2017-08-05 17:00:00 18.9 47 Nordeste 58 Nordeste 0 -- -- 71
2017-08-05 16:00:00 19 48 Nordeste 58 Nordeste 0 -- -- 72
2017-08-05 15:00:00 18.7 48 Nordeste 58 Nordeste 0 -- -- 74
2017-08-05 14:00:00 18.9 49 Nordeste 58 Nordeste 0 -- -- 75
2017-08-05 13:00:00 18.9 45 Nordeste 56 Nordeste 0 -- -- 80
2017-08-05 12:00:00 18.2 45 Nordeste 54 Nordeste 0 -- -- 85
2017-08-05 11:00:00 18.1 41 Nordeste 48 Nordeste 0 -- -- 86
2017-08-05 10:00:00 17.7 36 Nordeste 43 Nordeste 0.1 -- -- 89
2017-08-05 09:00:00 17.2 32 Nordeste 38 Nordeste 0 -- -- 97
2017-08-05 08:00:00 16.3 30 Nordeste 36 Nordeste 0 -- -- 98
2017-08-05 07:00:00 16.3 26 Nordeste 37 Nordeste 0 -- -- 99
2017-08-05 06:00:00 16 32 Nordeste 37 Nordeste 0 -- -- 99
2017-08-05 05:00:00 16 30 Nordeste 37 Nordeste 0 -- -- 99
2017-08-05 04:00:00 15.8 29 Nordeste 36 Nordeste 0 -- -- 99
2017-08-05 03:00:00 16 19 Nordeste 30 Nordeste 0 -- -- 99
2017-08-05 02:00:00 16 19 Nordeste 35 Nordeste 0 -- -- 99
2017-08-05 01:00:00 16.1 27 Nordeste 32 Nordeste 0 -- -- 99
2017-08-05 00:00:00 16.2 21 Nordeste 36 Nordeste 0.1 -- -- 99
2017-08-04 23:00:00 16 27 Nordeste 33 Nordeste 0 -- -- 99
2017-08-04 22:00:00 16.4 27 Nordeste 36 Norte 0.2 -- -- 99
2017-08-04 21:00:00 16.6 27 Nordeste 33 Nordeste 0.3 -- -- 99
2017-08-04 20:00:00 17.2 25 Nordeste 30 Nordeste 0 -- -- 99
2017-08-04 19:00:00 17.6 25 Nordeste 30 Nordeste 0.3 -- -- 99
2017-08-04 18:00:00 17.8 19 Norte 28 Sudoeste 0.1 -- -- 99
2017-08-04 17:00:00 19.5 22 Sudoeste 31 Sudoeste 0 -- -- 99
2017-08-04 16:00:00 20 26 Sudoeste 36 Sudoeste 0 -- -- 99
2017-08-04 15:00:00 20.3 30 Sudoeste 40 Sudoeste 0.1 -- -- 99
2017-08-04 14:00:00 20 29 Sudoeste 42 Sudoeste 0.1 -- -- 99
2017-08-04 13:00:00 19.9 30 Sudoeste 41 Sudoeste 0.7 -- -- 99
2017-08-04 12:00:00 19.9 29 Sudoeste 42 Sudoeste 0.2 -- -- 99
2017-08-04 11:00:00 19.8 30 Sudoeste 43 Sudoeste 0.1 -- -- 99
2017-08-04 10:00:00 19.6 29 Sudoeste 39 Sudoeste 0 -- -- 99
2017-08-04 09:00:00 19.2 28 Sudoeste 37 Sudoeste 0 -- -- 99
2017-08-04 08:00:00 19.1 27 Sudoeste 37 Sur 0 -- -- 99
2017-08-04 07:00:00 19.2 24 Sur 35 Sudoeste 0 -- -- 99
2017-08-04 06:00:00 18.9 26 Sudoeste 34 Sudoeste 0 -- -- 99
2017-08-04 05:00:00 19 25 Sudoeste 34 Sudoeste 0 -- -- 99
2017-08-04 04:00:00 19.1 27 Sudoeste 41 Sudoeste 0 -- -- 99
2017-08-04 03:00:00 19.3 33 Sudoeste 45 Sudoeste 0 -- -- 98
2017-08-04 02:00:00 19.5 31 Sudoeste 42 Sudoeste 0.1 -- -- 98
2017-08-04 01:00:00 19.6 28 Sur 39 Sur 0 -- -- 97
2017-08-04 00:00:00 19.3 30 Sur 38 Sur 0 -- -- 96
2017-08-03 23:00:00 19.3 29 Sur 39 Sur 0 -- -- 93
2017-08-03 22:00:00 19.8 27 Sur 43 Sudoeste 0 -- -- 83
2017-08-03 21:00:00 20.5 26 Sur 44 Sur 0 -- -- 74
2017-08-03 20:00:00 20.6 29 Sudoeste 39 Sudoeste 0 -- -- 70
2017-08-03 19:00:00 23.3 30 Sur 39 Sur 0 -- -- 60
2017-08-03 18:00:00 22.6 26 Sudoeste 36 Sudoeste 0 -- -- 63
2017-08-03 17:00:00 22.5 30 Sudoeste 37 Sudoeste 0 -- -- 68
2017-08-03 16:00:00 22.2 30 Sudoeste 38 Sudoeste 0 -- -- 74
2017-08-03 15:00:00 21.9 28 Sudoeste 36 Sudoeste 0 -- -- 85
2017-08-03 14:00:00 21.5 26 Sudoeste 32 Sudoeste 0 -- -- 88
2017-08-03 13:00:00 21.1 22 Sudoeste 30 Sudoeste 0 -- -- 92
2017-08-03 12:00:00 20.4 20 Sudoeste 26 Sudoeste 0 -- -- 98
2017-08-03 11:00:00 19.3 15 Sudoeste 19 Sudoeste 0 -- -- 99
2017-08-03 10:00:00 18.8 11 Sur 14 Sudoeste 0 -- -- 99
2017-08-03 09:00:00 17.6 9 Sur 12 Sur 0 -- -- 99
2017-08-03 08:00:00 16.9 8 Sur 9 Sur 0 -- -- 99
2017-08-03 07:00:00 17 8 Sur 10 Sur 0 -- -- 99
2017-08-03 06:00:00 17.2 8 Sur 17 Sudoeste 0 -- -- 99
2017-08-03 05:00:00 18 14 Sudoeste 25 Sudoeste 0 -- -- 99
2017-08-03 04:00:00 18.1 20 Sudoeste 30 Sudoeste 0.1 -- -- 99
2017-08-03 03:00:00 18.3 23 Sudoeste 43 Sudoeste 0 -- -- 99
2017-08-03 02:00:00 18.7 36 Sudoeste 45 Sudoeste 0.2 -- -- 99
2017-08-03 01:00:00 19 27 Sur 43 Sur 0.3 -- -- 99
2017-08-03 00:00:00 19.1 30 Sur 51 Sudoeste 0.3 -- -- 98
2017-08-02 23:00:00 19.2 32 Sudoeste 46 Sudoeste 0 -- -- 97
2017-08-02 22:00:00 19.6 34 Sudoeste 45 Sudoeste 0 -- -- 96
2017-08-02 21:00:00 20 33 Sudoeste 48 Sudoeste 0 -- -- 94
2017-08-02 20:00:00 20.7 36 Sudoeste 49 Sudoeste 0 -- -- 90
2017-08-02 19:00:00 22.8 35 Sudoeste 51 Sur 0 -- -- 83
2017-08-02 18:00:00 21.3 33 Sudoeste 49 Sudoeste 0 -- -- 87
2017-08-02 17:00:00 22.1 31 Sur 45 Sudoeste 0 -- -- 83
2017-08-02 16:00:00 20.6 29 Sur 38 Sur 0 -- -- 89
2017-08-02 15:00:00 20.3 27 Sur 40 Sur 0 -- -- 85
2017-08-02 14:00:00 20.8 29 Sur 40 Sur 0 -- -- 79
2017-08-02 13:00:00 21.7 29 Sur 43 Sur 0 -- -- 78
2017-08-02 12:00:00 20.1 31 Sur 40 Sur 0 -- -- 86
2017-08-02 11:00:00 18.8 30 Sur 42 Sur 0 -- -- 90
2017-08-02 10:00:00 19 26 Sur 37 Sudoeste 0 -- -- 90
2017-08-02 09:00:00 17 24 Sur 32 Sur 0 -- -- 94
2017-08-02 08:00:00 16.5 24 Sur 30 Sur 0 -- -- 94
2017-08-02 07:00:00 16 21 Sur 29 Sur 0 -- -- 94
2017-08-02 06:00:00 16 22 Sur 28 Sur 0 -- -- 94
2017-08-02 05:00:00 16.2 22 Sur 27 Sur 0 -- -- 94
2017-08-02 04:00:00 16.1 20 Sur 26 Sur 0 -- -- 94
2017-08-02 03:00:00 15.4 19 Sur 24 Sur 0 -- -- 94
2017-08-02 02:00:00 15.6 15 Sur 22 Sur 0 -- -- 92
2017-08-02 01:00:00 16 15 Sur 19 Sur 0 -- -- 92
2017-08-02 00:00:00 16.4 13 Sur 15 Sur 0 -- -- 90
2017-08-01 23:00:00 16.5 11 Sur 13 Sur 0 -- -- 89
2017-08-01 22:00:00 17.4 9 Sur 12 Sudoeste 0 -- -- 83
2017-08-01 21:00:00 19.8 10 Sudoeste 14 Sudoeste 0 -- -- 74
2017-08-01 20:00:00 20.6 10 Sudoeste 16 Sudoeste 0 -- -- 72
2017-08-01 19:00:00 21.5 12 Sudoeste 16 Oeste 0 -- -- 68
2017-08-01 18:00:00 22.4 11 Oeste 16 Oeste 0 -- -- 62
2017-08-01 17:00:00 22.2 12 Oeste 17 Oeste 0 -- -- 61
2017-08-01 16:00:00 21.8 10 Noroeste 16 Noroeste 0 -- -- 67
2017-08-01 15:00:00 21.9 9 Noroeste 15 Norte 0 -- -- 69
2017-08-01 14:00:00 21.1 11 Norte 14 Norte 0 -- -- 75
2017-08-01 13:00:00 20.9 10 Norte 13 Norte 0 -- -- 83
2017-08-01 12:00:00 19.3 8 Norte 11 Norte 0 -- -- 88
2017-08-01 11:00:00 18.5 6 Norte 9 Norte 0 -- -- 88
2017-08-01 10:00:00 18.2 4 Nordeste 5 Nordeste 0 -- -- 92
2017-08-01 09:00:00 16.7 3 Este 14 Este 0 -- -- 97
2017-08-01 08:00:00 14.3 9 Este 19 Este 0 -- -- 97
2017-08-01 07:00:00 14.5 3 Este 6 Este 0 -- -- 96
2017-08-01 06:00:00 14.6 3 Este 8 Este 0 -- -- 96
2017-08-01 05:00:00 14.6 5 Este 10 Este 0 -- -- 96
2017-08-01 04:00:00 14.4 8 Este 14 Este 0 -- -- 96
2017-08-01 03:00:00 14.8 10 Este 12 Este 0 -- -- 94
2017-08-01 02:00:00 15.3 6 Nordeste 11 Nordeste 0 -- -- 93
2017-08-01 01:00:00 15.4 9 Este 15 Este 0 -- -- 93
2017-08-01 00:00:00 15.5 13 Este 15 Nordeste 0 -- -- 93
2017-07-31 23:00:00 16.5 11 Nordeste 18 Nordeste 0 -- -- 92
2017-07-31 22:00:00 16.7 13 Nordeste 18 Nordeste 0 -- -- 92
2017-07-31 21:00:00 18.3 12 Nordeste 15 Norte 0 -- -- 83
2017-07-31 20:00:00 19 10 Norte 15 Norte 0 -- -- 79
2017-07-31 19:00:00 20.2 10 Norte 17 Norte 0 -- -- 75
2017-07-31 18:00:00 20.1 13 Norte 17 Nordeste 0 -- -- 70
2017-07-31 17:00:00 21.6 14 Norte 18 Norte 0 -- -- 70
2017-07-31 16:00:00 20.6 12 Norte 19 Norte 0 -- -- 73
2017-07-31 15:00:00 21.6 15 Norte 20 Norte 0 -- -- 73
2017-07-31 14:00:00 21 16 Norte 21 Norte 0 -- -- 77
2017-07-31 13:00:00 19.2 12 Norte 15 Norte 0 -- -- 84
2017-07-31 12:00:00 19.9 9 Norte 11 Norte 0 -- -- 89
2017-07-31 11:00:00 18.5 4 Norte 7 Norte 0 -- -- 94
2017-07-31 10:00:00 17.5 2 Noroeste 6 Oeste 0 -- -- 96
2017-07-31 09:00:00 17.7 3 Nordeste 5 Nordeste 0 -- -- 96
2017-07-31 08:00:00 15.6 0 Calma 5 Este 0 -- -- 97
2017-07-31 07:00:00 15.4 3 Este 6 Este 0 -- -- 96
2017-07-31 06:00:00 15.6 2 Este 9 Sudeste 0 -- -- 96
2017-07-31 05:00:00 15.6 5 Sudeste 11 Sudeste 0 -- -- 95
2017-07-31 04:00:00 16.3 0 Calma 5 Sudoeste 0 -- -- 95
2017-07-31 03:00:00 16.3 3 Sudoeste 7 Sudeste 0 -- -- 95
2017-07-31 02:00:00 16.4 5 Sudeste 9 Sudeste 0 -- -- 95
2017-07-31 01:00:00 16.5 6 Sur 8 Sur 0 -- -- 94
2017-07-31 00:00:00 16.6 3 Oeste 9 Sudoeste 0 -- -- 94
2017-07-30 23:00:00 16.7 4 Sudoeste 13 Sudoeste 0 -- -- 92
2017-07-30 22:00:00 17 9 Sudoeste 17 Sudoeste 0 -- -- 91
2017-07-30 21:00:00 17.5 10 Sudoeste 14 Sudoeste 0 -- -- 86
2017-07-30 20:00:00 18.2 10 Sudoeste 17 Sudoeste 0 -- -- 83
2017-07-30 19:00:00 19.6 13 Sudoeste 17 Sudoeste 0 -- -- 77
2017-07-30 18:00:00 20.8 15 Sudoeste 20 Sudoeste 0 -- -- 76
2017-07-30 17:00:00 21.6 15 Sudoeste 24 Sudoeste 0 -- -- 73
2017-07-30 16:00:00 20.9 18 Sudoeste 23 Sudoeste 0 -- -- 77
2017-07-30 15:00:00 19.6 15 Sudoeste 24 Sudoeste 0 -- -- 83
2017-07-30 14:00:00 21.6 17 Sudoeste 22 Sudoeste 0 -- -- 76
2017-07-30 13:00:00 20.2 18 Sudoeste 27 Sudoeste 0 -- -- 88
2017-07-30 12:00:00 19 22 Sudoeste 31 Sudoeste 0 -- -- 97
2017-07-30 11:00:00 18.1 26 Sudoeste 33 Sudoeste 0 -- -- 98
2017-07-30 10:00:00 17.6 24 Sudoeste 75 Sudoeste 0 -- -- 99
2017-07-30 09:00:00 17.2 23 Sudoeste 30 Sudoeste 0 -- -- 99
2017-07-30 08:00:00 16.3 19 Sudoeste 24 Sur 0 -- -- 99
2017-07-30 07:00:00 16.1 18 Sur 22 Sur 0 -- -- 99
2017-07-30 06:00:00 15.9 17 Sur 20 Sur 0 -- -- 99
2017-07-30 05:00:00 15.8 17 Sur 21 Sur 0 -- -- 99
2017-07-30 04:00:00 15.9 15 Sudoeste 19 Sudoeste 0 -- -- 99
2017-07-30 03:00:00 16.3 14 Sudoeste 18 Sudoeste 0 -- -- 99
2017-07-30 02:00:00 16.6 13 Sudoeste 17 Sudoeste 0 -- -- 99
2017-07-30 01:00:00 17 13 Sudoeste 18 Sudoeste 0 -- -- 99
2017-07-30 00:00:00 16.9 10 Oeste 30 Sudoeste 0 -- -- 99
2017-07-29 23:00:00 17.7 27 Sudoeste 39 Sudoeste 0 -- -- 99
2017-07-29 22:00:00 18.4 32 Sudoeste 50 Sudoeste 0 -- -- 98
2017-07-29 21:00:00 18.7 38 Sudoeste 51 Sudoeste 0.6 -- -- 98
2017-07-29 20:00:00 19.1 40 Sudoeste 60 Sudoeste 0.1 -- -- 97
2017-07-29 19:00:00 20.3 44 Sudoeste 60 Sudoeste 0 -- -- 96
2017-07-29 18:00:00 19.7 42 Sudoeste 57 Sudoeste 0.1 -- -- 97
2017-07-29 17:00:00 19.8 44 Sudoeste 64 Sudoeste 0 -- -- 92
2017-07-29 16:00:00 21.6 46 Sudoeste 67 Sudoeste 0 -- -- 89
2017-07-29 15:00:00 20.2 46 Sudoeste 60 Sudoeste 0 -- -- 99
2017-07-29 14:00:00 19.8 41 Sudoeste 56 Sudoeste 0 -- -- 99
2017-07-29 13:00:00 18.6 36 Sudoeste 50 Sudoeste 0 -- -- 99
2017-07-29 12:00:00 18.6 37 Sudoeste 51 Sudoeste 0 -- -- 99
2017-07-29 11:00:00 18.7 29 Sudoeste 40 Sudoeste 0 -- -- 99
2017-07-29 10:00:00 18.7 28 Sudoeste 45 Sudoeste 0 -- -- 99
2017-07-29 09:00:00 18.6 27 Sur 40 Sudoeste 0.3 -- -- 99
2017-07-29 08:00:00 17.9 23 Sur 33 Sudoeste 0.2 -- -- 99
2017-07-29 07:00:00 17.6 31 Sudoeste 41 Sudoeste 0 -- -- 99
2017-07-29 06:00:00 17.4 29 Sudoeste 41 Sudoeste 0 -- -- 99
2017-07-29 05:00:00 17.9 30 Sudoeste 39 Sudoeste 0.1 -- -- 99
2017-07-29 04:00:00 17.6 31 Sudoeste 42 Sudoeste 0.1 -- -- 99
2017-07-29 03:00:00 18.2 31 Sudoeste 39 Sudoeste 0.1 -- -- 99
2017-07-29 02:00:00 18.3 24 Sudoeste 33 Sur 0 -- -- 99
2017-07-29 01:00:00 18.6 21 Sur 36 Sudoeste 0 -- -- 99
2017-07-29 00:00:00 18.3 25 Sudoeste 39 Sudoeste 0.1 -- -- 98
2017-07-28 23:00:00 18.5 26 Sur 34 Sur 0.1 -- -- 98
2017-07-28 22:00:00 18.6 21 Sur 30 Sur 0.4 -- -- 98
2017-07-28 21:00:00 18.8 21 Sur 30 Sur 0 -- -- 97
2017-07-28 20:00:00 18.7 23 Sur 31 Sur 0 -- -- 95
2017-07-28 19:00:00 19.9 24 Sur 36 Sudoeste 0 -- -- 93
2017-07-28 18:00:00 19.9 19 Sur 29 Sur 0 -- -- 93
2017-07-28 17:00:00 20.3 21 Sur 39 Sudoeste 0 -- -- 86
2017-07-28 16:00:00 20.3 26 Sudoeste 34 Sudoeste 0 -- -- 79
2017-07-28 15:00:00 21.9 23 Sudoeste 33 Sudoeste 0 -- -- 74
2017-07-28 14:00:00 22.1 24 Sudoeste 34 Sudoeste 0 -- -- 75
2017-07-28 13:00:00 20.9 24 Sudoeste 35 Sudoeste 0 -- -- 77
2017-07-28 12:00:00 21.6 20 Sudoeste 25 Sudoeste 0 -- -- 76
2017-07-28 11:00:00 20.3 19 Sudoeste 24 Sur 0 -- -- 79
2017-07-28 10:00:00 18.8 18 Sur 23 Sur 0 -- -- 91
2017-07-28 09:00:00 16.7 17 Sur 20 Sur 0 -- -- 93
2017-07-28 08:00:00 15.5 15 Sur 18 Sur 0 -- -- 93
2017-07-28 07:00:00 15.4 12 Sur 16 Sur 0 -- -- 93
2017-07-28 06:00:00 15.5 13 Sur 15 Sur 0 -- -- 94
2017-07-28 05:00:00 15.2 10 Sur 13 Sur 0 -- -- 94
2017-07-28 04:00:00 15.3 9 Sur 11 Sudeste 0 -- -- 94
2017-07-28 03:00:00 15.4 8 Sur 11 Sudeste 0 -- -- 94
2017-07-28 02:00:00 15.6 7 Sudeste 12 Sudeste 0 -- -- 94
2017-07-28 01:00:00 16.3 9 Sudeste 12 Sudeste 0 -- -- 92
2017-07-28 00:00:00 16.1 3 Este 6 Nordeste 0 -- -- 94
2017-07-27 23:00:00 16.5 5 Nordeste 7 Norte 0 -- -- 95
2017-07-27 22:00:00 17.9 4 Norte 7 Norte 0 -- -- 94
2017-07-27 21:00:00 19.5 4 Noroeste 9 Norte 0 -- -- 93
2017-07-27 20:00:00 19.7 6 Noroeste 9 Noroeste 0 -- -- 94
2017-07-27 19:00:00 19.8 4 Norte 12 Oeste 0 -- -- 99
2017-07-27 18:00:00 19.5 4 Oeste 9 Sur 0 -- -- 99
2017-07-27 17:00:00 18.9 4 Oeste 12 Sudoeste 0 -- -- 99
2017-07-27 16:00:00 17.5 10 Oeste 19 Sudoeste 0 -- -- 99
2017-07-27 15:00:00 18.4 17 Sudoeste 25 Sudoeste 0.3 -- -- 99
2017-07-27 14:00:00 18.3 21 Sudoeste 27 Sudoeste 0 -- -- 99
2017-07-27 13:00:00 18.9 23 Sur 30 Sur 0.4 -- -- 99
2017-07-27 12:00:00 18.4 21 Sur 28 Sur 0.1 -- -- 99
2017-07-27 11:00:00 18.2 22 Sudoeste 30 Sudoeste 0.1 -- -- 99
2017-07-27 10:00:00 18.2 22 Sudoeste 31 Sudoeste 0 -- -- 99
2017-07-27 09:00:00 18.1 24 Sur 30 Sudoeste 0.1 -- -- 99
2017-07-27 08:00:00 18 22 Sudoeste 29 Sudoeste 0.3 -- -- 99
2017-07-27 07:00:00 17.7 19 Sudoeste 27 Sur 0 -- -- 99
2017-07-27 06:00:00 18 19 Sur 23 Sudoeste 0 -- -- 99
2017-07-27 05:00:00 18 19 Sur 23 Sudoeste 0 -- -- 98
2017-07-27 04:00:00 17.9 17 Sur 19 Sur 0 -- -- 98
2017-07-27 03:00:00 18 15 Sudoeste 18 Sudoeste 0 -- -- 97
2017-07-27 02:00:00 18.2 14 Sur 17 Sudoeste 0 -- -- 96
2017-07-27 01:00:00 18.2 12 Sur 15 Sur 0 -- -- 94
2017-07-27 00:00:00 18.4 8 Sur 10 Sur 0 -- -- 93
2017-07-26 23:00:00 18.4 7 Sudoeste 9 Sudoeste 0 -- -- 92
2017-07-26 22:00:00 18.8 4 Sudoeste 15 Sudoeste 0 -- -- 88
2017-07-26 21:00:00 19.9 5 Sudoeste 11 Sudoeste 0 -- -- 83
2017-07-26 20:00:00 21.1 5 Sudoeste 31 Sudoeste 0 -- -- 77
2017-07-26 19:00:00 22.6 8 Sudoeste 18 Sudoeste 0 -- -- 69
2017-07-26 18:00:00 23 8 Sudoeste 15 Sudoeste 0 -- -- 68
2017-07-26 17:00:00 22.6 9 Sudoeste 17 Sudoeste 0 -- -- 67
2017-07-26 16:00:00 22.4 9 Oeste 17 Sudoeste 0 -- -- 67
2017-07-26 15:00:00 22.3 4 Oeste 18 Oeste 0 -- -- 67
2017-07-26 14:00:00 21.3 7 Nordeste 13 Norte 0 -- -- 73
2017-07-26 13:00:00 20.8 7 Nordeste 14 Nordeste 0 -- -- 76
2017-07-26 12:00:00 19.7 6 Nordeste 11 Norte 0 -- -- 83
2017-07-26 11:00:00 19.1 9 Nordeste 13 Nordeste 0 -- -- 88
2017-07-26 10:00:00 17.7 8 Nordeste 11 Nordeste 0 -- -- 95
2017-07-26 09:00:00 16.4 5 Nordeste 11 Nordeste 0 -- -- 97
2017-07-26 08:00:00 15 10 Nordeste 15 Este 0 -- -- 97
2017-07-26 07:00:00 15 8 Nordeste 17 Nordeste 0 -- -- 97
2017-07-26 06:00:00 15.6 13 Nordeste 19 Nordeste 0 -- -- 97
2017-07-26 05:00:00 15.3 12 Nordeste 19 Nordeste 0 -- -- 96
2017-07-26 04:00:00 16.1 16 Nordeste 26 Nordeste 0 -- -- 97
2017-07-26 03:00:00 15.8 22 Nordeste 26 Nordeste 0 -- -- 98
2017-07-26 02:00:00 16.1 21 Nordeste 26 Nordeste 0 -- -- 98
2017-07-26 01:00:00 16.4 19 Nordeste 29 Nordeste 0 -- -- 98
2017-07-26 00:00:00 16.4 21 Nordeste 27 Nordeste 0 -- -- 98
2017-07-25 23:00:00 16.6 18 Nordeste 26 Nordeste 0 -- -- 98
2017-07-25 22:00:00 16.8 20 Nordeste 26 Nordeste 0 -- -- 97
2017-07-25 21:00:00 16.9 22 Nordeste 27 Nordeste 0 -- -- 96
2017-07-25 20:00:00 17.8 23 Nordeste 25 Nordeste 0 -- -- 93
2017-07-25 19:00:00 19 22 Nordeste 27 Nordeste 0 -- -- 89
2017-07-25 18:00:00 19.3 23 Nordeste 27 Nordeste 0 -- -- 86
2017-07-25 17:00:00 19.9 26 Nordeste 33 Nordeste 0 -- -- 83
2017-07-25 16:00:00 20.2 29 Nordeste 35 Nordeste 0 -- -- 77
2017-07-25 15:00:00 20.1 27 Nordeste 36 Nordeste 0 -- -- 79
2017-07-25 14:00:00 18.9 32 Nordeste 37 Nordeste 0 -- -- 79
2017-07-25 13:00:00 19.2 26 Nordeste 37 Nordeste 0 -- -- 84
2017-07-25 12:00:00 18 32 Nordeste 43 Nordeste 0 -- -- 84
2017-07-25 11:00:00 17.4 31 Nordeste 40 Nordeste 0 -- -- 87
2017-07-25 10:00:00 16.6 29 Nordeste 41 Nordeste 0 -- -- 90
2017-07-25 09:00:00 15.8 32 Nordeste 38 Nordeste 0 -- -- 97
2017-07-25 08:00:00 15.8 25 Nordeste 33 Nordeste 0 -- -- 97
2017-07-25 07:00:00 15.9 26 Nordeste 39 Nordeste 0 -- -- 97
2017-07-25 06:00:00 15.7 27 Nordeste 37 Nordeste 0 -- -- 97
2017-07-25 05:00:00 15.6 26 Nordeste 35 Nordeste 0 -- -- 98
2017-07-25 04:00:00 15.4 26 Nordeste 33 Nordeste 0 -- -- 98
2017-07-25 03:00:00 16 25 Nordeste 33 Nordeste 0 -- -- 98
2017-07-25 02:00:00 16.1 30 Nordeste 36 Nordeste 0 -- -- 98
2017-07-25 01:00:00 16.1 28 Nordeste 32 Nordeste 0 -- -- 98
2017-07-25 00:00:00 16.1 28 Nordeste 36 Nordeste 0 -- -- 97
2017-07-24 23:00:00 16.3 28 Nordeste 33 Nordeste 0 -- -- 97
2017-07-24 22:00:00 16.5 23 Nordeste 31 Nordeste 0 -- -- 96
2017-07-24 21:00:00 16.8 26 Nordeste 44 Norte 0 -- -- 95
2017-07-24 20:00:00 16.9 28 Nordeste 34 Nordeste 0 -- -- 96
2017-07-24 19:00:00 18.3 28 Nordeste 33 Nordeste 0 -- -- 92
2017-07-24 18:00:00 19.6 24 Nordeste 31 Nordeste 0 -- -- 89
2017-07-24 17:00:00 20.1 16 Nordeste 22 Nordeste 0 -- -- 88
2017-07-24 16:00:00 19.9 18 Norte 26 Nordeste 0 -- -- 90
2017-07-24 15:00:00 17.8 17 Norte 24 Norte 0 -- -- 98
2017-07-24 14:00:00 18.5 11 Nordeste 17 Nordeste 0 -- -- 99
2017-07-24 13:00:00 18.1 12 Nordeste 19 Norte 0 -- -- 99
2017-07-24 12:00:00 17.2 14 Nordeste 31 Nordeste 0 -- -- 99
2017-07-24 11:00:00 17.1 15 Nordeste 24 Nordeste 0.1 -- -- 99
2017-07-24 10:00:00 16 18 Nordeste 31 Norte 0 -- -- 99
2017-07-24 09:00:00 16 13 Nordeste 25 Nordeste 0.3 -- -- 99
2017-07-24 08:00:00 16.1 15 Norte 19 Norte 0 -- -- 99
2017-07-24 07:00:00 16.1 12 Nordeste 24 Norte 0.1 -- -- 99
2017-07-24 06:00:00 16.2 16 Norte 26 Norte 0.1 -- -- 99
2017-07-24 05:00:00 16.6 17 Noroeste 24 Noroeste 0.1 -- -- 99
2017-07-24 04:00:00 16.8 13 Noroeste 18 Norte 0 -- -- 99
2017-07-24 03:00:00 16.8 12 Norte 21 Norte 0 -- -- 99
2017-07-24 02:00:00 16.9 7 Nordeste 19 Noroeste 0 -- -- 99
2017-07-24 01:00:00 17.5 15 Noroeste 22 Noroeste 0 -- -- 99
2017-07-24 00:00:00 17.3 13 Noroeste 24 Noroeste 0.1 -- -- 98
2017-07-23 23:00:00 17.7 4 Oeste 14 Noroeste 0 -- -- 98
2017-07-23 22:00:00 18 7 Noroeste 14 Noroeste 0 -- -- 98
2017-07-23 21:00:00 18 7 Oeste 15 Sudoeste 0 -- -- 98
2017-07-23 20:00:00 17.8 11 Sudoeste 15 Sudoeste 0.4 -- -- 98
2017-07-23 19:00:00 18.4 10 Sudoeste 18 Sudoeste 0 -- -- 97
2017-07-23 18:00:00 19.1 14 Sudoeste 19 Sudoeste 0 -- -- 96
2017-07-23 17:00:00 19.5 14 Sudoeste 21 Sudoeste 0 -- -- 94
2017-07-23 16:00:00 21.3 16 Sudoeste 22 Sudoeste 0 -- -- 91
2017-07-23 15:00:00 20.5 16 Sudoeste 21 Sudoeste 0 -- -- 95
2017-07-23 14:00:00 19.1 14 Sudoeste 18 Sudoeste 0 -- -- 96
2017-07-23 13:00:00 18.7 13 Sur 16 Sudoeste 0 -- -- 96
2017-07-23 12:00:00 18.3 9 Sudoeste 13 Sudoeste 0 -- -- 95
2017-07-23 11:00:00 18.9 7 Sur 13 Sur 0 -- -- 95
2017-07-23 10:00:00 17.5 5 Sur 11 Oeste 0 -- -- 94
2017-07-23 09:00:00 17.1 2 Sudoeste 7 Sudeste 0 -- -- 94
2017-07-23 08:00:00 16.4 0 Calma 6 Sudeste 0 -- -- 94
2017-07-23 07:00:00 15.8 0 Calma 5 Sudeste 0 -- -- 94
2017-07-23 06:00:00 15.8 3 Sudoeste 8 Sudeste 0 -- -- 93
2017-07-23 05:00:00 16 2 Sudoeste 6 Sudeste 0 -- -- 91
2017-07-23 04:00:00 16.3 0 Calma 3 Noroeste 0 -- -- 90
2017-07-23 03:00:00 16.2 0 Calma 3 Norte 0 -- -- 90
2017-07-23 02:00:00 16.5 0 Calma 9 Este 0 -- -- 90
2017-07-23 01:00:00 16.3 4 Nordeste 6 Norte 0 -- -- 91
2017-07-23 00:00:00 16 6 Nordeste 8 Nordeste 0 -- -- 92